Time;durP1;ratioP1;P1;durP2;ratioP2;P2;SDS_P1;SDS_P2;PMS_P1;PMS_P2;Temp;Humidity;BMP_temperature;BMP_pressure;BME280_temperature;BME280_humidity;BME280_pressure;Samples;Min_cycle;Max_cycle;Signal;HPM_P1;HPM_P2
2022/04/07 00:01:08;;;;;;;5.50;1.83;;;10.60;99.90;;;;;;4966014;28;20238;-89
2022/04/07 00:03:34;;;;;;;2.25;1.50;;;12.90;99.90;;;;;;4963311;28;20215;-90
2022/04/07 00:06:01;;;;;;;3.60;1.50;;;;;;;;;;4978551;28;20184;-90
2022/04/07 00:08:31;;;;;;;1.48;1.15;;;10.20;99.90;;;;;;4964170;28;20435;-89
2022/04/07 00:10:57;;;;;;;1.88;1.35;;;;;;;;;;4960985;28;20733;-89
2022/04/07 00:13:25;;;;;;;2.63;1.80;;;;;;;;;;4978343;28;20231;-89
2022/04/07 00:15:53;;;;;;;2.80;1.85;;;;;;;;;;4961722;28;20968;-90
2022/04/07 00:18:19;;;;;;;2.15;1.52;;;;;;;;;;4963388;28;20192;-88
2022/04/07 00:20:52;;;;;;;2.33;1.37;;;9.90;99.90;;;;;;4960569;28;20208;-89
2022/04/07 00:23:18;;;;;;;2.33;1.73;;;;;;;;;;4965283;28;20446;-88
2022/04/07 00:25:44;;;;;;;1.52;1.40;;;9.70;99.90;;;;;;4957249;28;20180;-88
2022/04/07 00:28:10;;;;;;;4.10;1.60;;;;;;;;;;4979110;28;20187;-88
2022/04/07 00:30:39;;;;;;;2.07;1.87;;;9.60;99.90;;;;;;4978596;28;20797;-89
2022/04/07 00:33:07;;;;;;;2.78;1.40;;;11.10;99.90;;;;;;4962806;28;20521;-88
2022/04/07 00:35:33;;;;;;;1.95;1.42;;;;;;;;;;4964524;28;20180;-88
2022/04/07 00:37:59;;;;;;;1.95;1.52;;;9.50;99.90;;;;;;4956557;28;20204;-89
2022/04/07 00:40:30;;;;;;;1.70;1.50;;;9.50;99.90;;;;;;4960156;28;20262;-89
2022/04/07 00:42:56;;;;;;;2.75;1.45;;;;;;;;;;4964283;28;20200;-89
2022/04/07 00:45:24;;;;;;;1.23;1.13;;;9.50;99.90;;;;;;4979649;28;20719;-88
2022/04/07 00:47:59;;;;;;;2.83;1.15;;;8.70;99.90;;;;;;4977449;28;20292;-89
2022/04/07 00:50:25;;;;;;;1.60;0.93;;;;;;;;;;4979100;28;20179;-89
2022/04/07 00:52:54;;;;;;;1.23;1.10;;;9.50;99.90;;;;;;4978014;28;20231;-87
2022/04/07 00:55:20;;;;;;;2.08;1.48;;;;;;;;;;4962950;28;20585;-87
2022/04/07 00:57:46;;;;;;;1.13;1.02;;;;;;;;;;4967799;28;20198;-88
2022/04/07 01:00:15;;;;;;;1.08;0.98;;;9.40;99.90;;;;;;4963412;28;20207;-87
2022/04/07 01:02:44;;;;;;;2.80;1.77;;;9.70;99.90;;;;;;4977328;28;20208;-87
2022/04/07 01:05:10;;;;;;;1.50;1.40;;;9.40;99.90;;;;;;4964524;28;20179;-87
2022/04/07 01:07:37;;;;;;;5.22;1.73;;;;;;;;;;4981924;28;20206;-87
2022/04/07 01:10:08;;;;;;;1.23;1.00;;;9.40;99.90;;;;;;4975687;28;20179;-88
2022/04/07 01:12:37;;;;;;;1.45;1.25;;;9.50;99.90;;;;;;4981705;28;20207;-87
2022/04/07 01:15:05;;;;;;;3.47;1.20;;;9.40;99.90;;;;;;4961144;28;20653;-88
2022/04/07 01:17:34;;;;;;;1.02;0.93;;;9.60;99.90;;;;;;4963227;28;20208;-87
2022/04/07 01:20:00;;;;;;;1.33;0.80;;;;;;;;;;4977457;28;20234;-88
2022/04/07 01:22:26;;;;;;;2.13;1.05;;;;;;;;;;4985177;28;20175;-89
2022/04/07 01:24:52;;;;;;;1.65;0.85;;;9.40;99.90;;;;;;4963537;28;20192;-88
2022/04/07 01:27:19;;;;;;;5.47;1.33;;;;;;;;;;4961792;28;20199;-88
2022/04/07 01:29:46;;;;;;;2.05;0.90;;;9.40;99.90;;;;;;4964208;28;20530;-87
2022/04/07 01:32:19;;;;;;;1.88;1.00;;;9.40;99.90;;;;;;4965771;28;20218;-87
2022/04/07 01:34:45;;;;;;;2.63;0.82;;;;;;;;;;4963258;28;20209;-87
2022/04/07 01:37:12;;;;;;;1.23;0.93;;;9.40;99.90;;;;;;4962146;28;20241;-87
2022/04/07 01:39:43;;;;;;;1.42;1.05;;;9.50;99.90;;;;;;4963127;28;20187;-86
2022/04/07 01:42:11;;;;;;;1.52;0.70;;;9.40;99.90;;;;;;4961374;28;20785;-87
2022/04/07 01:44:40;;;;;;;1.23;0.85;;;11.20;99.90;;;;;;4980271;28;20374;-88
2022/04/07 01:47:09;;;;;;;0.70;0.70;;;9.40;99.90;;;;;;4943623;28;20180;-87
2022/04/07 01:49:36;;;;;;;1.05;0.95;;;9.50;99.90;;;;;;4959382;28;20184;-87
2022/04/07 01:52:04;;;;;;;0.93;0.65;;;9.40;99.90;;;;;;4959267;28;20189;-89
2022/04/07 01:54:30;;;;;;;0.70;0.57;;;;;;;;;;4958548;28;20227;-88
2022/04/07 01:56:58;;;;;;;1.15;0.82;;;9.50;99.90;;;;;;4943804;28;20255;-89
2022/04/07 01:59:25;;;;;;;0.80;0.70;;;;;;;;;;4960701;28;20193;-88
2022/04/07 02:01:51;;;;;;;2.13;0.75;;;9.60;99.90;;;;;;4945096;28;20629;-89
2022/04/07 02:04:17;;;;;;;1.00;0.60;;;;;;;;;;4960853;28;20233;-86
2022/04/07 02:06:43;;;;;;;0.93;0.88;;;;;;;;;;4948724;28;20210;-87
2022/04/07 02:09:10;;;;;;;0.70;0.63;;;;;;;;;;4944810;28;20183;-88
2022/04/07 02:11:36;;;;;;;1.30;0.90;;;;;;;;;;4944131;29;20181;-87
2022/04/07 02:14:05;;;;;;;1.10;0.65;;;10.10;99.90;;;;;;4941350;28;20214;-87
2022/04/07 02:16:31;;;;;;;1.08;0.70;;;;;;;;;;4945441;28;20184;-88
2022/04/07 02:18:57;;;;;;;1.17;0.70;;;;;;;;;;4941163;28;20247;-87
2022/04/07 02:21:23;;;;;;;2.05;0.70;;;;;;;;;;4958203;28;20212;-88
2022/04/07 02:23:51;;;;;;;1.10;0.80;;;;;;;;;;4939211;28;20204;-87
2022/04/07 02:26:19;;;;;;;1.58;1.02;;;10.00;99.90;;;;;;4942369;29;20474;-88
2022/04/07 02:28:45;;;;;;;1.27;0.85;;;9.90;99.90;;;;;;4942062;29;20204;-86
2022/04/07 02:31:11;;;;;;;1.25;1.10;;;9.70;99.90;;;;;;4951308;28;20248;-89
2022/04/07 02:33:38;;;;;;;3.10;0.80;;;;;;;;;;4960998;28;20244;-91
2022/04/07 02:36:08;;;;;;;1.20;0.65;;;9.50;99.90;;;;;;4963904;28;20253;-92
2022/04/07 02:38:35;;;;;;;3.13;1.15;;;9.50;99.90;;;;;;4961619;28;20185;-88
2022/04/07 02:41:04;;;;;;;2.75;0.70;;;9.80;99.90;;;;;;4959066;28;20213;-88
2022/04/07 02:43:30;;;;;;;2.35;0.60;;;;;;;;;;4959559;28;20217;-88
2022/04/07 02:45:56;;;;;;;2.05;0.70;;;;;;;;;;4961139;28;20177;-90
2022/04/07 02:48:22;;;;;;;0.95;0.73;;;;;;;;;;4947290;28;21327;-88
2022/04/07 02:50:48;;;;;;;2.50;0.90;;;;;;;;;;4945825;28;20184;-90
2022/04/07 02:53:14;;;;;;;0.83;0.83;;;;;;;;;;4949992;28;20458;-89
2022/04/07 02:55:40;;;;;;;1.17;0.82;;;;;;;;;;4962275;28;20457;-88
2022/04/07 02:58:06;;;;;;;1.60;0.73;;;11.60;99.90;;;;;;4947156;28;20669;-88
2022/04/07 03:00:31;;;;;;;0.60;0.60;;;9.40;99.90;;;;;;4959336;28;20203;-88
2022/04/07 03:02:57;;;;;;;0.73;0.70;;;;;;;;;;4966364;28;20231;-90
2022/04/07 03:05:23;;;;;;;1.13;0.83;;;9.30;99.90;;;;;;4947828;28;20634;-88
2022/04/07 03:07:48;;;;;;;1.00;0.73;;;9.30;99.90;;;;;;4946110;28;20434;-89
2022/04/07 03:10:15;;;;;;;1.03;0.60;;;9.30;99.90;;;;;;4945507;28;20669;-88
2022/04/07 03:12:41;;;;;;;1.33;1.13;;;11.70;99.90;;;;;;4943068;28;20205;-90
2022/04/07 03:15:08;;;;;;;1.38;0.88;;;12.30;99.90;;;;;;4956139;28;20802;-88
2022/04/07 03:17:34;;;;;;;0.50;0.50;;;;;;;;;;4945197;28;20228;-89
2022/04/07 03:20:00;;;;;;;0.90;0.90;;;;;;;;;;4941076;28;20192;-90
2022/04/07 03:22:27;;;;;;;1.17;0.80;;;9.40;99.90;;;;;;4955528;28;20176;-90
2022/04/07 03:24:53;;;;;;;0.88;0.65;;;;;;;;;;4956758;28;20271;-86
2022/04/07 03:27:19;;;;;;;1.25;0.57;;;9.30;99.90;;;;;;4943885;28;20180;-89
2022/04/07 03:29:45;;;;;;;1.15;0.63;;;;;;;;;;4946345;28;20184;-87
2022/04/07 03:32:11;;;;;;;0.75;0.55;;;;;;;;;;4942206;28;20284;-86
2022/04/07 03:34:37;;;;;;;0.50;0.50;;;;;;;;;;4941138;29;20232;-88
2022/04/07 03:37:04;;;;;;;0.52;0.52;;;9.40;99.90;;;;;;4960963;28;20500;-87
2022/04/07 03:39:31;;;;;;;0.40;0.32;;;;;;;;;;4944401;28;20188;-87
2022/04/07 03:41:57;;;;;;;0.60;0.50;;;;;;;;;;4943788;28;20211;-88
2022/04/07 03:44:23;;;;;;;0.50;0.40;;;;;;;;;;4944159;28;20752;-87
2022/04/07 03:46:49;;;;;;;1.75;0.70;;;;;;;;;;4960893;28;20184;-88
2022/04/07 03:49:15;;;;;;;0.70;0.50;;;;;;;;;;4945957;28;20190;-90
2022/04/07 03:51:41;;;;;;;1.43;1.00;;;;;;;;;;4958132;28;20436;-88
2022/04/07 03:54:07;;;;;;;0.70;0.57;;;;;;;;;;4948440;28;20460;-87
2022/04/07 03:56:33;;;;;;;1.48;1.02;;;9.40;99.90;;;;;;4939398;28;20471;-87
2022/04/07 03:58:59;;;;;;;0.77;0.70;;;;;;;;;;4942658;28;20184;-87
2022/04/07 04:01:26;;;;;;;1.80;0.75;;;9.40;99.90;;;;;;4945288;28;20200;-90
2022/04/07 04:03:52;;;;;;;0.82;0.55;;;;;;;;;;4942274;28;20212;-89
2022/04/07 04:06:18;;;;;;;0.73;0.60;;;;;;;;;;4959092;28;20220;-87
2022/04/07 04:08:44;;;;;;;1.07;0.60;;;;;;;;;;4944445;28;20429;-87
2022/04/07 04:11:12;;;;;;;10.40;6.60;;;;;;;;;;4942442;28;20511;-89
2022/04/07 04:13:38;;;;;;;0.70;0.63;;;;;;;;;;4940096;28;20487;-87
2022/04/07 04:16:05;;;;;;;0.65;0.55;;;9.40;99.90;;;;;;4958599;28;20197;-90
2022/04/07 04:18:31;;;;;;;0.45;0.40;;;9.40;99.90;;;;;;4962278;28;20188;-89
2022/04/07 04:20:57;;;;;;;0.55;0.50;;;;;;;;;;4973801;28;20196;-88
2022/04/07 04:23:23;;;;;;;2.83;0.90;;;;;;;;;;4967987;28;20200;-87
2022/04/07 04:25:49;;;;;;;0.60;0.60;;;;;;;;;;4962509;28;20191;-88
2022/04/07 04:28:15;;;;;;;0.60;0.50;;;;;;;;;;4943564;28;20185;-89
2022/04/07 04:30:41;;;;;;;0.60;0.50;;;;;;;;;;4943424;28;20427;-90
2022/04/07 04:33:07;;;;;;;0.40;0.40;;;;;;;;;;4960888;28;20506;-89
2022/04/07 04:35:33;;;;;;;0.60;0.60;;;;;;;;;;4957758;28;20185;-91
2022/04/07 04:37:59;;;;;;;2.27;0.63;;;;;;;;;;4956863;28;20552;-88
2022/04/07 04:40:25;;;;;;;0.90;0.68;;;;;;;;;;4944744;28;20531;-87
2022/04/07 04:42:51;;;;;;;2.50;0.73;;;9.70;99.90;;;;;;4941943;28;20208;-88
2022/04/07 04:45:17;;;;;;;0.70;0.57;;;;;;;;;;4951911;28;20449;-89
2022/04/07 04:47:43;;;;;;;0.93;0.80;;;9.70;99.90;;;;;;4929890;28;20432;-88
2022/04/07 04:50:09;;;;;;;0.83;0.60;;;9.80;99.90;;;;;;4958464;28;20275;-87
2022/04/07 04:52:35;;;;;;;0.70;0.50;;;9.80;99.90;;;;;;4933097;28;20428;-89
2022/04/07 04:55:00;;;;;;;0.70;0.43;;;9.80;99.90;;;;;;4933129;28;20188;-87
2022/04/07 04:57:27;;;;;;;1.70;1.20;;;9.90;99.90;;;;;;4938708;28;20193;-89
2022/04/07 04:59:53;;;;;;;1.33;0.80;;;9.90;99.90;;;;;;4939729;28;20196;-88
2022/04/07 05:02:19;;;;;;;1.53;0.97;;;10.00;99.90;;;;;;4939006;28;20181;-89
2022/04/07 05:04:45;;;;;;;0.60;0.40;;;9.90;99.90;;;;;;4951701;28;20176;-90
2022/04/07 05:07:14;;;;;;;0.67;0.50;;;9.80;99.90;;;;;;4955228;28;20184;-88
2022/04/07 05:09:39;;;;;;;0.82;0.50;;;9.80;99.90;;;;;;4936160;28;20210;-89
2022/04/07 05:12:06;;;;;;;0.80;0.80;;;9.70;99.90;;;;;;4936655;28;20200;-89
2022/04/07 05:14:32;;;;;;;1.52;0.50;;;9.90;99.90;;;;;;4944453;28;20219;-87
2022/04/07 05:16:57;;;;;;;3.70;1.30;;;9.90;99.90;;;;;;4940619;28;20188;-88
2022/04/07 05:19:23;;;;;;;0.63;0.63;;;9.90;99.90;;;;;;4941101;29;20228;-88
2022/04/07 05:21:50;;;;;;;1.60;1.07;;;9.90;99.90;;;;;;4956325;28;20235;-89
2022/04/07 05:24:19;;;;;;;1.40;0.90;;;9.90;99.90;;;;;;4941649;29;20208;-87
2022/04/07 05:26:45;;;;;;;1.42;0.90;;;9.90;99.90;;;;;;4962779;28;20184;-88
2022/04/07 05:29:11;;;;;;;0.70;0.50;;;9.70;99.90;;;;;;4972594;28;20180;-89
2022/04/07 05:31:36;;;;;;;0.53;0.40;;;9.80;99.90;;;;;;4973451;28;20267;-89
2022/04/07 05:34:03;;;;;;;1.07;0.60;;;9.90;99.90;;;;;;4974624;28;20224;-90
2022/04/07 05:36:29;;;;;;;1.10;0.80;;;;;;;;;;4952100;28;20191;-88
2022/04/07 05:38:54;;;;;;;1.57;0.70;;;10.00;99.90;;;;;;4936366;28;20184;-88
2022/04/07 05:41:20;;;;;;;4.17;0.70;;;10.00;99.90;;;;;;4953299;28;20479;-88
2022/04/07 05:43:46;;;;;;;1.03;0.80;;;10.00;99.90;;;;;;4935484;28;20196;-88
2022/04/07 05:46:12;;;;;;;0.83;0.40;;;;;;;;;;4936210;28;20204;-88
2022/04/07 05:48:38;;;;;;;1.25;0.50;;;10.20;99.90;;;;;;4959074;28;20436;-89
2022/04/07 05:51:04;;;;;;;1.10;0.60;;;;;;;;;;4973082;28;20188;-90
2022/04/07 05:53:29;;;;;;;0.70;0.70;;;;;;;;;;4939329;28;20681;-89
2022/04/07 05:55:58;;;;;;;1.07;0.47;;;10.30;99.90;;;;;;4945012;28;20534;-89
2022/04/07 05:58:24;;;;;;;3.60;0.90;;;10.40;99.90;;;;;;4950387;28;22282;-90
2022/04/07 06:00:50;;;;;;;0.83;0.70;;;;;;;;;;4952007;28;20212;-89
2022/04/07 06:03:16;;;;;;;0.80;0.80;;;10.70;99.90;;;;;;4939320;28;20558;-89
2022/04/07 06:05:42;;;;;;;1.43;0.63;;;10.90;99.90;;;;;;4956273;28;20200;-88
2022/04/07 06:08:07;;;;;;;3.80;0.77;;;10.90;99.90;;;;;;4950806;28;20446;-88
2022/04/07 06:10:34;;;;;;;0.57;0.50;;;10.60;99.90;;;;;;4941249;28;20180;-88
2022/04/07 06:12:59;;;;;;;5.97;0.80;;;12.30;99.90;;;;;;4951694;28;20250;-88
2022/04/07 06:15:25;;;;;;;1.27;0.60;;;10.70;99.90;;;;;;4955039;28;20912;-89
2022/04/07 06:17:52;;;;;;;0.50;0.40;;;10.60;99.90;;;;;;4937058;28;20182;-88
2022/04/07 06:20:17;;;;;;;2.72;0.90;;;10.70;99.90;;;;;;4952544;28;20511;-89
2022/04/07 06:22:44;;;;;;;0.93;0.70;;;10.60;99.90;;;;;;4956173;28;20231;-88
2022/04/07 06:25:10;;;;;;;1.23;0.60;;;;;;;;;;4940757;28;20185;-89
2022/04/07 06:27:40;;;;;;;0.82;0.57;;;10.40;99.90;;;;;;4943489;28;22157;-88
2022/04/07 06:30:09;;;;;;;0.40;0.40;;;10.30;99.90;;;;;;4958092;28;20203;-90
2022/04/07 06:32:36;;;;;;;1.23;0.68;;;;;;;;;;4963060;28;20198;-90
2022/04/07 06:35:01;;;;;;;1.20;0.50;;;10.40;99.90;;;;;;4962340;28;20794;-88
2022/04/07 06:37:27;;;;;;;0.60;0.50;;;10.30;99.90;;;;;;4962020;28;20280;-89
2022/04/07 06:40:03;;;;;;;1.03;0.70;;;10.40;99.90;;;;;;4942738;28;20440;-89
2022/04/07 06:42:30;;;;;;;1.52;0.80;;;10.40;99.90;;;;;;4941680;28;20310;-88
2022/04/07 06:44:56;;;;;;;0.60;0.50;;;10.40;99.90;;;;;;4956106;28;20180;-90
2022/04/07 06:47:22;;;;;;;0.73;0.60;;;10.40;99.90;;;;;;4943266;28;20244;-88
2022/04/07 06:49:49;;;;;;;1.00;0.77;;;10.50;99.90;;;;;;4943607;29;20181;-88
2022/04/07 06:52:15;;;;;;;2.78;0.73;;;;;;;;;;4951853;28;20188;-88
2022/04/07 06:54:41;;;;;;;2.60;0.67;;;;;;;;;;4938828;28;20339;-88
2022/04/07 06:57:07;;;;;;;0.50;0.40;;;10.80;99.90;;;;;;4936700;28;20580;-88
2022/04/07 06:59:32;;;;;;;1.13;0.50;;;11.00;99.90;;;;;;4934692;28;20495;-88
2022/04/07 07:01:58;;;;;;;0.70;0.40;;;11.00;99.90;;;;;;4956383;28;20212;-91
2022/04/07 07:04:24;;;;;;;2.57;0.40;;;11.00;99.90;;;;;;4965062;28;20588;-89
2022/04/07 07:06:50;;;;;;;0.52;0.52;;;;;;;;;;4953908;28;20173;-88
2022/04/07 07:09:16;;;;;;;0.50;0.40;;;10.90;99.90;;;;;;4954599;28;20191;-88
2022/04/07 07:11:47;;;;;;;1.20;0.53;;;10.90;99.90;;;;;;4931654;28;20444;-89
2022/04/07 07:14:12;;;;;;;4.15;1.00;;;;;;;;;;4953487;28;20238;-89
2022/04/07 07:16:38;;;;;;;0.50;0.43;;;11.00;99.90;;;;;;4936298;28;20199;-88
2022/04/07 07:19:04;;;;;;;0.60;0.50;;;;;;;;;;4935525;28;20555;-89
2022/04/07 07:21:29;;;;;;;0.60;0.40;;;11.00;99.90;;;;;;4952768;28;20480;-88
2022/04/07 07:23:56;;;;;;;1.27;0.60;;;12.30;99.90;;;;;;4951038;28;20196;-88
2022/04/07 07:26:21;;;;;;;0.63;0.43;;;13.30;99.90;;;;;;4951169;28;20190;-89
2022/04/07 07:28:47;;;;;;;2.80;1.00;;;11.10;99.90;;;;;;4944939;28;20536;-89
2022/04/07 07:31:13;;;;;;;2.10;0.60;;;;;;;;;;4975303;28;20247;-90
2022/04/07 07:33:38;;;;;;;0.57;0.40;;;11.30;99.90;;;;;;4945792;28;20228;-88
2022/04/07 07:36:04;;;;;;;0.40;0.30;;;12.50;99.90;;;;;;4939638;28;20440;-89
2022/04/07 07:38:30;;;;;;;0.80;0.40;;;11.40;99.90;;;;;;4952528;28;20192;-88
2022/04/07 07:40:57;;;;;;;0.97;0.40;;;11.40;99.90;;;;;;4937933;28;20200;-89
2022/04/07 07:43:23;;;;;;;0.50;0.40;;;11.60;99.90;;;;;;4951972;28;20211;-88
2022/04/07 07:45:50;;;;;;;0.77;0.40;;;11.60;99.90;;;;;;4955477;28;20268;-89
2022/04/07 07:48:22;;;;;;;1.05;0.40;;;11.70;99.90;;;;;;4951292;28;20792;-88
2022/04/07 07:50:48;;;;;;;0.50;0.40;;;11.70;99.90;;;;;;4941744;28;20239;-89
2022/04/07 07:53:16;;;;;;;0.40;0.40;;;;;;;;;;4961357;28;20879;-88
2022/04/07 07:55:41;;;;;;;0.57;0.57;;;11.60;99.90;;;;;;4941345;28;20189;-87
2022/04/07 07:58:07;;;;;;;1.70;0.53;;;11.50;99.90;;;;;;4945376;28;20195;-88
2022/04/07 08:00:32;;;;;;;0.50;0.40;;;11.50;99.90;;;;;;4942473;28;20212;-88
2022/04/07 08:02:58;;;;;;;0.80;0.40;;;11.50;99.90;;;;;;4941777;28;21422;-87
2022/04/07 08:05:23;;;;;;;0.40;0.30;;;11.50;99.90;;;;;;4923856;28;20275;-88
2022/04/07 08:07:49;;;;;;;0.40;0.40;;;;;;;;;;4925674;28;22016;-88
2022/04/07 08:10:15;;;;;;;1.07;0.50;;;11.70;99.90;;;;;;4924754;28;20185;-88
2022/04/07 08:12:40;;;;;;;0.97;0.50;;;11.90;99.90;;;;;;4945117;28;20499;-88
2022/04/07 08:15:07;;;;;;;0.40;0.37;;;12.70;99.90;;;;;;4943429;28;21356;-88
2022/04/07 08:17:36;;;;;;;1.15;0.40;;;11.90;99.90;;;;;;4941590;28;20189;-88
2022/04/07 08:20:03;;;;;;;0.63;0.32;;;11.90;99.90;;;;;;4945985;28;20184;-87
2022/04/07 08:22:30;;;;;;;2.22;0.38;;;12.40;99.90;;;;;;4932154;28;20180;-89
2022/04/07 08:24:58;;;;;;;0.88;0.30;;;12.30;99.90;;;;;;4950661;28;20186;-87
2022/04/07 08:27:37;;;;;;;0.50;0.40;;;12.50;99.90;;;;;;4956106;28;20188;-89
2022/04/07 08:30:03;;;;;;;5.07;0.85;;;12.40;99.90;;;;;;4977549;28;20189;-90
2022/04/07 08:32:31;;;;;;;0.60;0.40;;;12.30;99.90;;;;;;4965874;28;20203;-89
2022/04/07 08:34:58;;;;;;;1.08;0.38;;;12.30;99.90;;;;;;4961504;28;20195;-90
2022/04/07 08:37:24;;;;;;;1.15;0.57;;;12.50;99.90;;;;;;4936024;28;20199;-91
2022/04/07 08:39:51;;;;;;;2.30;0.50;;;12.50;99.90;;;;;;4948690;28;20188;-89
2022/04/07 08:42:20;;;;;;;0.45;0.38;;;12.80;99.90;;;;;;4952899;28;20219;-90
2022/04/07 08:44:47;;;;;;;1.20;0.50;;;13.70;99.90;;;;;;4948129;28;20172;-88
2022/04/07 08:47:14;;;;;;;0.73;0.40;;;12.50;99.90;;;;;;4957140;28;20212;-89
2022/04/07 08:49:42;;;;;;;1.38;0.32;;;12.70;99.90;;;;;;4939146;28;20214;-89
2022/04/07 08:52:08;;;;;;;1.13;0.50;;;12.70;99.90;;;;;;4954019;28;21212;-87
2022/04/07 08:54:34;;;;;;;1.98;0.40;;;12.70;99.90;;;;;;4936284;28;20941;-89
2022/04/07 08:57:01;;;;;;;0.90;0.50;;;12.70;99.90;;;;;;4942921;28;20247;-87
2022/04/07 08:59:27;;;;;;;0.50;0.30;;;12.90;99.90;;;;;;4976509;28;20444;-89
2022/04/07 09:02:01;;;;;;;0.50;0.40;;;12.90;99.90;;;;;;4941579;28;20511;-87
2022/04/07 09:04:30;;;;;;;0.83;0.70;;;12.80;99.90;;;;;;4938971;28;20463;-89
2022/04/07 09:06:56;;;;;;;0.90;0.40;;;12.60;99.90;;;;;;4934221;28;20440;-89
2022/04/07 09:09:22;;;;;;;1.98;0.50;;;12.50;99.90;;;;;;4951699;28;20276;-90
2022/04/07 09:11:54;;;;;;;1.47;0.40;;;12.50;99.90;;;;;;4938320;28;20299;-88
2022/04/07 09:14:20;;;;;;;1.00;0.50;;;12.50;99.90;;;;;;4949058;28;20215;-87
2022/04/07 09:16:46;;;;;;;1.53;0.40;;;12.60;99.90;;;;;;4948851;28;20192;-87
2022/04/07 09:19:13;;;;;;;0.43;0.38;;;12.60;99.90;;;;;;4945926;28;20184;-89
2022/04/07 09:21:41;;;;;;;1.57;0.50;;;12.80;99.90;;;;;;4932333;28;20260;-88
2022/04/07 09:24:07;;;;;;;0.63;0.43;;;12.80;99.90;;;;;;4936285;28;20625;-87
2022/04/07 09:26:41;;;;;;;0.87;0.40;;;12.90;99.90;;;;;;4949422;28;20223;-87
2022/04/07 09:29:11;;;;;;;0.73;0.40;;;12.80;99.90;;;;;;4926701;28;20447;-87
2022/04/07 09:31:50;;;;;;;0.70;0.47;;;12.70;99.90;;;;;;4951315;28;20192;-88
2022/04/07 09:34:30;;;;;;;0.70;0.47;;;12.70;99.90;;;;;;4914818;28;20216;-88
2022/04/07 09:37:05;;;;;;;0.60;0.30;;;13.60;99.90;;;;;;4948149;28;20464;-88
2022/04/07 09:39:31;;;;;;;1.10;0.60;;;;;;;;;;4934779;28;20196;-88
2022/04/07 09:42:17;;;;;;;0.70;0.50;;;12.60;99.90;;;;;;4929981;28;20276;-88
2022/04/07 09:44:42;;;;;;;0.40;0.30;;;12.50;99.90;;;;;;4925157;28;20981;-87
2022/04/07 09:47:12;;;;;;;0.80;0.40;;;12.40;99.90;;;;;;4923522;28;20198;-88
2022/04/07 09:49:38;;;;;;;0.40;0.30;;;12.60;99.90;;;;;;4935327;28;20207;-88
2022/04/07 09:52:05;;;;;;;0.50;0.30;;;12.60;99.90;;;;;;4971621;28;20293;-88
2022/04/07 09:54:34;;;;;;;0.98;0.40;;;12.60;99.90;;;;;;4963554;28;20228;-89
2022/04/07 09:57:03;;;;;;;0.70;0.50;;;12.70;99.90;;;;;;4934156;29;20903;-88
2022/04/07 09:59:30;;;;;;;0.60;0.40;;;12.90;99.90;;;;;;4946032;28;20189;-87
2022/04/07 10:01:56;;;;;;;0.60;0.43;;;13.10;99.90;;;;;;4950454;28;20208;-87
2022/04/07 10:04:22;;;;;;;1.00;0.30;;;13.20;99.90;;;;;;4932288;28;20460;-87
2022/04/07 10:06:51;;;;;;;1.30;0.37;;;13.30;99.90;;;;;;4930580;28;20724;-88
2022/04/07 10:09:19;;;;;;;0.77;0.50;;;13.30;99.90;;;;;;4953238;28;20172;-88
2022/04/07 10:11:45;;;;;;;2.40;0.40;;;13.30;99.90;;;;;;4912282;28;20192;-88
2022/04/07 10:14:14;;;;;;;0.50;0.40;;;13.20;99.90;;;;;;4946951;28;21020;-86
2022/04/07 10:16:40;;;;;;;0.40;0.30;;;13.30;99.90;;;;;;4943592;28;20443;-87
2022/04/07 10:19:12;;;;;;;0.40;0.30;;;13.20;99.90;;;;;;4945029;28;20668;-87
2022/04/07 10:21:57;;;;;;;0.50;0.30;;;13.50;99.90;;;;;;4947092;28;20211;-88
2022/04/07 10:24:30;;;;;;;0.80;0.40;;;13.10;99.90;;;;;;4932406;28;20208;-88
2022/04/07 10:27:00;;;;;;;0.60;0.47;;;13.00;99.90;;;;;;4961061;28;20443;-88
2022/04/07 10:29:26;;;;;;;0.40;0.33;;;13.20;99.90;;;;;;4945793;28;20446;-88
2022/04/07 10:32:10;;;;;;;0.70;0.50;;;13.40;99.90;;;;;;4949395;28;20463;-90
2022/04/07 10:34:36;;;;;;;0.70;0.40;;;13.60;99.90;;;;;;4937382;28;20254;-89
2022/04/07 10:37:08;;;;;;;0.60;0.40;;;14.00;99.90;;;;;;4934868;28;21349;-89
2022/04/07 10:39:39;;;;;;;0.70;0.40;;;14.30;99.90;;;;;;4934572;28;20198;-88
2022/04/07 10:42:05;;;;;;;1.07;0.30;;;14.20;99.90;;;;;;4947384;28;20879;-89
2022/04/07 10:44:33;;;;;;;1.30;0.50;;;14.40;99.90;;;;;;4936689;28;20464;-88
2022/04/07 10:47:07;;;;;;;0.50;0.40;;;14.40;99.90;;;;;;4955751;28;20475;-90
2022/04/07 10:49:34;;;;;;;0.70;0.50;;;14.70;99.90;;;;;;4952813;28;20490;-90
2022/04/07 10:52:06;;;;;;;0.60;0.40;;;14.70;99.90;;;;;;4935790;28;20938;-90
2022/04/07 10:54:32;;;;;;;0.50;0.33;;;14.60;99.90;;;;;;4942112;28;20471;-88
2022/04/07 10:57:00;;;;;;;0.80;0.50;;;14.50;99.90;;;;;;4932948;28;20448;-88
2022/04/07 10:59:32;;;;;;;1.43;0.30;;;14.30;99.90;;;;;;4935348;28;20193;-88
2022/04/07 11:02:00;;;;;;;0.60;0.40;;;14.10;99.90;;;;;;4945281;28;20486;-89
2022/04/07 11:04:25;;;;;;;0.50;0.30;;;;;;;;;;4949920;28;21008;-89
2022/04/07 11:07:07;;;;;;;0.50;0.30;;;14.00;99.90;;;;;;4939842;28;20446;-90
2022/04/07 11:09:54;;;;;;;3.20;0.50;;;13.90;99.90;;;;;;4958285;28;20492;-90
2022/04/07 11:12:30;;;;;;;0.50;0.40;;;14.00;99.90;;;;;;4957171;28;20192;-89
2022/04/07 11:15:02;;;;;;;0.60;0.30;;;14.00;99.90;;;;;;4956292;28;20215;-89
2022/04/07 11:17:37;;;;;;;0.50;0.37;;;14.00;99.90;;;;;;4962968;28;20475;-90
2022/04/07 11:20:17;;;;;;;2.40;0.60;;;14.20;99.90;;;;;;4952698;28;20447;-89
2022/04/07 11:22:49;;;;;;;0.60;0.37;;;14.30;99.90;;;;;;4939786;28;20546;-89
2022/04/07 11:25:23;;;;;;;0.50;0.33;;;14.40;99.90;;;;;;4958245;28;20454;-89
2022/04/07 11:28:06;;;;;;;0.60;0.50;;;14.50;99.90;;;;;;4976644;28;20463;-90
2022/04/07 11:30:43;;;;;;;21.63;1.90;;;14.50;99.90;;;;;;4959762;28;20459;-89
2022/04/07 11:33:27;;;;;;;0.40;0.30;;;14.40;99.90;;;;;;4937732;28;21869;-89
2022/04/07 11:36:02;;;;;;;0.50;0.40;;;14.30;99.90;;;;;;4938789;28;20431;-90
2022/04/07 11:38:29;;;;;;;0.40;0.30;;;14.40;99.90;;;;;;4957928;28;20445;-89
2022/04/07 11:41:12;;;;;;;0.50;0.30;;;14.50;99.90;;;;;;4957527;28;20472;-89
2022/04/07 11:43:42;;;;;;;0.50;0.33;;;14.50;99.90;;;;;;4939280;28;20562;-90
2022/04/07 11:46:08;;;;;;;0.50;0.30;;;14.70;99.90;;;;;;4953022;28;20436;-90
2022/04/07 11:48:35;;;;;;;0.40;0.30;;;15.20;99.90;;;;;;4934588;28;20439;-91
2022/04/07 11:51:11;;;;;;;0.53;0.30;;;14.70;99.90;;;;;;4933689;29;20440;-89
2022/04/07 11:53:44;;;;;;;0.50;0.30;;;14.80;99.90;;;;;;4957439;28;20455;-90
2022/04/07 11:56:20;;;;;;;0.40;0.30;;;14.80;99.90;;;;;;4961767;28;20440;-90
2022/04/07 11:59:05;;;;;;;0.60;0.40;;;14.80;99.90;;;;;;4952618;28;20463;-91
2022/04/07 12:01:31;;;;;;;0.40;0.30;;;14.90;99.90;;;;;;4953192;28;21288;-88
2022/04/07 12:04:02;;;;;;;0.50;0.30;;;14.90;99.90;;;;;;4946582;28;20459;-89
2022/04/07 12:06:33;;;;;;;0.57;0.43;;;14.80;99.90;;;;;;4950612;28;20444;-91
2022/04/07 12:09:01;;;;;;;4.63;0.50;;;14.60;99.90;;;;;;4934448;28;20459;-90
2022/04/07 12:11:30;;;;;;;1.90;0.50;;;14.40;99.90;;;;;;4930658;28;20507;-89
2022/04/07 12:13:56;;;;;;;0.93;0.50;;;14.60;99.90;;;;;;4931549;28;20564;-89
2022/04/07 12:16:23;;;;;;;0.60;0.40;;;14.60;99.90;;;;;;4928390;28;20452;-87
2022/04/07 12:18:57;;;;;;;0.60;0.50;;;14.60;99.90;;;;;;4948730;28;20455;-89
2022/04/07 12:21:24;;;;;;;1.33;0.30;;;14.20;99.90;;;;;;4949269;28;20472;-87
2022/04/07 12:24:05;;;;;;;2.30;0.40;;;14.40;99.90;;;;;;4948776;28;20463;-88
2022/04/07 12:26:39;;;;;;;0.50;0.30;;;14.50;99.90;;;;;;4947604;28;20440;-87
2022/04/07 12:29:07;;;;;;;0.73;0.40;;;14.60;99.90;;;;;;4943405;28;20451;-89
2022/04/07 12:31:32;;;;;;;0.60;0.50;;;14.70;99.90;;;;;;4928088;28;20456;-88
2022/04/07 12:34:07;;;;;;;1.60;0.80;;;15.10;99.90;;;;;;4932127;28;20551;-87
2022/04/07 12:36:35;;;;;;;0.50;0.40;;;15.40;99.90;;;;;;4944036;28;20320;-88
2022/04/07 12:39:05;;;;;;;1.37;0.60;;;15.70;99.90;;;;;;4944064;28;20462;-88
2022/04/07 12:41:42;;;;;;;0.60;0.30;;;15.80;99.90;;;;;;4960494;28;20468;-86
2022/04/07 12:44:08;;;;;;;0.50;0.30;;;18.10;99.90;;;;;;4946807;28;21612;-87
2022/04/07 12:46:54;;;;;;;0.70;0.37;;;15.50;99.90;;;;;;4930416;28;20829;-87
2022/04/07 12:49:32;;;;;;;1.80;0.40;;;15.70;99.90;;;;;;4934293;28;20448;-87
2022/04/07 12:52:04;;;;;;;0.70;0.30;;;16.10;99.90;;;;;;4945372;28;20440;-87
2022/04/07 12:54:30;;;;;;;0.50;0.30;;;15.90;99.90;;;;;;4944954;28;20467;-87
2022/04/07 12:57:13;;;;;;;2.20;0.47;;;15.60;99.90;;;;;;4952413;28;20512;-88
2022/04/07 12:59:54;;;;;;;3.77;0.40;;;15.60;99.90;;;;;;4945186;28;20192;-88
2022/04/07 13:02:20;;;;;;;1.13;0.53;;;15.90;99.90;;;;;;4929435;28;20463;-87
2022/04/07 13:04:53;;;;;;;0.50;0.30;;;15.50;99.90;;;;;;4944610;28;20466;-87
2022/04/07 13:07:20;;;;;;;0.60;0.40;;;15.40;99.90;;;;;;4945947;28;20456;-87
2022/04/07 13:09:47;;;;;;;1.50;0.30;;;15.70;99.90;;;;;;4945357;28;20450;-87
2022/04/07 13:12:13;;;;;;;0.40;0.30;;;15.60;99.90;;;;;;4950319;28;20539;-88
2022/04/07 13:14:43;;;;;;;0.47;0.30;;;15.70;99.90;;;;;;4943844;28;21393;-87
2022/04/07 13:17:09;;;;;;;0.50;0.40;;;15.70;99.90;;;;;;4940966;28;20475;-87
2022/04/07 13:19:35;;;;;;;5.80;0.53;;;15.50;99.90;;;;;;4943919;28;21336;-87